createdAt,value
2022-09-30T00:00:04.312Z,1.20
2022-09-30T00:02:31.236Z,1.17
2022-09-30T00:04:57.619Z,1.20
2022-09-30T00:07:24.180Z,1.10
2022-09-30T00:09:50.575Z,1.20
2022-09-30T00:12:17.744Z,1.30
2022-09-30T00:14:44.117Z,1.42
2022-09-30T00:17:10.550Z,1.20
2022-09-30T00:19:36.849Z,1.10
2022-09-30T00:22:03.617Z,1.38
2022-09-30T00:24:30.066Z,1.33
2022-09-30T00:26:56.712Z,1.40
2022-09-30T00:29:23.232Z,1.50
2022-09-30T00:31:49.895Z,1.50
2022-09-30T00:34:18.161Z,1.35
2022-09-30T00:36:46.150Z,1.48
2022-09-30T00:39:14.834Z,1.52
2022-09-30T00:41:41.677Z,1.65
2022-09-30T00:44:26.733Z,1.48
2022-09-30T00:46:55.584Z,1.65
2022-09-30T00:49:24.925Z,1.65
2022-09-30T00:51:55.924Z,1.50
2022-09-30T00:54:26.155Z,1.75
2022-09-30T00:56:55.113Z,1.70
2022-09-30T00:59:26.747Z,1.60
2022-09-30T01:01:53.569Z,1.55
2022-09-30T01:04:22.330Z,1.50
2022-09-30T01:06:49.148Z,1.80
2022-09-30T01:09:15.579Z,1.48
2022-09-30T01:11:42.326Z,1.40
2022-09-30T01:14:10.837Z,1.50
2022-09-30T01:16:49.410Z,1.70
2022-09-30T01:19:15.893Z,1.80
2022-09-30T01:22:01.436Z,1.60
2022-09-30T01:24:46.614Z,1.60
2022-09-30T01:27:31.817Z,1.55
2022-09-30T01:30:03.597Z,1.40
2022-09-30T01:32:29.948Z,1.50
2022-09-30T01:35:13.226Z,1.80
2022-09-30T01:37:58.274Z,1.63
2022-09-30T01:40:39.590Z,1.83
2022-09-30T01:43:11.717Z,1.90
2022-09-30T01:45:50.125Z,1.67
2022-09-30T01:48:31.714Z,1.67
2022-09-30T01:51:13.814Z,1.80
2022-09-30T01:53:45.433Z,1.85
2022-09-30T01:56:20.063Z,1.70
2022-09-30T01:58:51.891Z,2.08
2022-09-30T02:01:22.550Z,1.33
2022-09-30T02:03:52.004Z,1.90
2022-09-30T02:06:24.585Z,1.98
2022-09-30T02:08:59.839Z,1.88
2022-09-30T02:11:32.441Z,2.00
2022-09-30T02:14:04.679Z,1.90
2022-09-30T02:16:42.571Z,1.80
2022-09-30T02:19:18.147Z,2.22
2022-09-30T02:21:47.055Z,1.98
2022-09-30T02:24:15.207Z,2.08
2022-09-30T02:26:42.978Z,1.92
2022-09-30T02:29:12.940Z,2.10
2022-09-30T02:31:41.600Z,2.13
2022-09-30T02:34:08.032Z,2.22
2022-09-30T02:36:40.607Z,2.58
2022-09-30T02:39:13.605Z,2.38
2022-09-30T02:41:49.977Z,1.98
2022-09-30T02:44:16.889Z,1.77
2022-09-30T02:46:55.985Z,2.38
2022-09-30T02:49:32.886Z,2.00
2022-09-30T02:51:59.246Z,1.90
2022-09-30T02:54:36.082Z,1.88
2022-09-30T02:57:09.611Z,1.60
2022-09-30T02:59:36.070Z,1.80
2022-09-30T03:02:03.143Z,1.85
2022-09-30T03:04:31.214Z,1.95
2022-09-30T03:06:57.644Z,2.15
2022-09-30T03:09:27.131Z,1.85
2022-09-30T03:14:39.026Z,2.03
2022-09-30T03:17:24.285Z,1.77
2022-09-30T03:20:00.006Z,1.88
2022-09-30T03:22:35.531Z,2.17
2022-09-30T03:25:14.643Z,2.08
2022-09-30T03:28:00.186Z,2.00
2022-09-30T03:30:27.311Z,2.00
2022-09-30T03:32:56.733Z,2.10
2022-09-30T03:35:42.051Z,1.83
2022-09-30T03:38:12.497Z,2.10
2022-09-30T03:40:43.679Z,2.15
2022-09-30T03:43:17.030Z,1.88
2022-09-30T03:45:48.050Z,1.90
2022-09-30T03:48:15.803Z,2.50
2022-09-30T03:50:42.867Z,2.00
2022-09-30T03:53:10.942Z,2.20
2022-09-30T03:55:43.995Z,2.10
2022-09-30T03:58:10.451Z,1.90
2022-09-30T04:00:37.452Z,2.22
2022-09-30T04:03:03.852Z,2.13
2022-09-30T04:05:30.524Z,2.00
2022-09-30T04:07:56.887Z,2.20
2022-09-30T04:10:23.579Z,2.22
2022-09-30T04:12:52.934Z,2.53
2022-09-30T04:15:19.337Z,2.53
2022-09-30T04:17:45.754Z,2.40
2022-09-30T04:20:13.760Z,2.40
2022-09-30T04:22:40.119Z,2.63
2022-09-30T04:25:06.965Z,2.35
2022-09-30T04:27:33.298Z,2.60
2022-09-30T04:29:59.604Z,2.40
2022-09-30T04:32:26.064Z,3.22
2022-09-30T04:34:54.201Z,2.45
2022-09-30T04:37:21.208Z,2.28
2022-09-30T04:39:47.561Z,2.60
2022-09-30T04:42:14.215Z,2.42
2022-09-30T04:44:40.645Z,2.95
2022-09-30T04:47:07.012Z,2.80
2022-09-30T04:49:33.388Z,2.97
2022-09-30T04:51:59.703Z,3.80
2022-09-30T04:54:26.037Z,2.85
2022-09-30T04:56:52.530Z,2.60
2022-09-30T04:59:19.004Z,3.10
2022-09-30T05:01:45.436Z,2.78
2022-09-30T05:04:16.245Z,2.85
2022-09-30T05:06:42.842Z,3.13
2022-09-30T05:09:09.367Z,2.97
2022-09-30T05:11:38.091Z,3.20
2022-09-30T05:14:08.800Z,2.92
2022-09-30T05:16:35.352Z,3.00
2022-09-30T05:19:01.857Z,2.90
2022-09-30T05:21:28.400Z,2.72
2022-09-30T05:23:54.678Z,3.00
2022-09-30T05:26:21.122Z,3.50
2022-09-30T05:28:47.909Z,3.28
2022-09-30T05:31:14.253Z,2.75
2022-09-30T05:33:42.016Z,3.30
2022-09-30T05:36:12.154Z,3.13
2022-09-30T05:38:38.649Z,3.63
2022-09-30T05:41:13.529Z,3.42
2022-09-30T05:43:40.816Z,3.33
2022-09-30T05:46:07.319Z,3.60
2022-09-30T05:48:35.128Z,3.17
2022-09-30T05:51:01.919Z,3.13
2022-09-30T05:53:29.395Z,3.92
2022-09-30T05:55:55.923Z,3.60
2022-09-30T05:58:22.438Z,3.47
2022-09-30T06:00:49.503Z,3.72
2022-09-30T06:03:16.648Z,3.50
2022-09-30T06:05:44.777Z,3.75
2022-09-30T06:08:11.389Z,3.72
2022-09-30T06:10:40.336Z,3.28
2022-09-30T06:13:08.098Z,3.78
2022-09-30T06:15:35.006Z,4.00
2022-09-30T06:18:01.374Z,3.75
2022-09-30T06:20:27.688Z,3.83
2022-09-30T06:22:54.635Z,3.65
2022-09-30T06:25:21.589Z,4.03
2022-09-30T06:27:48.155Z,3.88
2022-09-30T06:30:14.968Z,4.20
2022-09-30T06:32:42.570Z,4.43
2022-09-30T06:35:10.189Z,3.80
2022-09-30T06:37:37.950Z,3.88
2022-09-30T06:40:05.824Z,3.80
2022-09-30T06:42:32.302Z,4.38
2022-09-30T06:44:58.778Z,4.18
2022-09-30T06:47:26.168Z,3.80
2022-09-30T06:49:58.901Z,4.25
2022-09-30T06:52:26.380Z,3.92
2022-09-30T06:54:52.991Z,4.15
2022-09-30T06:57:22.593Z,4.20
2022-09-30T06:59:49.362Z,4.43
2022-09-30T07:02:16.202Z,4.78
2022-09-30T07:04:42.985Z,4.07
2022-09-30T07:07:09.392Z,5.22
2022-09-30T07:09:35.796Z,4.53
2022-09-30T07:12:02.244Z,4.45
2022-09-30T07:14:28.748Z,4.25
2022-09-30T07:16:55.364Z,4.15
2022-09-30T07:19:23.068Z,3.78
2022-09-30T07:21:50.159Z,5.22
2022-09-30T07:24:16.930Z,4.07
2022-09-30T07:26:45.169Z,4.05
2022-09-30T07:29:13.302Z,3.55
2022-09-30T07:31:40.153Z,3.72
2022-09-30T07:34:07.758Z,4.00
2022-09-30T07:36:35.624Z,4.25
2022-09-30T07:39:05.383Z,3.72
2022-09-30T07:41:31.885Z,4.15
2022-09-30T07:44:01.468Z,3.88
2022-09-30T07:46:31.131Z,3.70
2022-09-30T07:49:03.333Z,6.22
2022-09-30T07:51:35.777Z,6.70
2022-09-30T07:54:09.236Z,5.88
2022-09-30T07:57:05.156Z,4.85
2022-09-30T08:01:51.559Z,5.43
2022-09-30T08:04:18.940Z,6.18
2022-09-30T08:06:47.044Z,5.45
2022-09-30T08:09:14.747Z,6.03
2022-09-30T08:11:42.906Z,4.88
2022-09-30T08:14:13.571Z,3.67
2022-09-30T08:16:41.788Z,3.63
2022-09-30T08:19:12.781Z,3.13
2022-09-30T08:21:39.355Z,3.45
2022-09-30T08:24:05.754Z,3.90
2022-09-30T08:26:32.333Z,4.32
2022-09-30T08:29:02.101Z,3.65
2022-09-30T08:31:29.911Z,4.82
2022-09-30T08:34:00.137Z,5.28
2022-09-30T08:36:27.006Z,4.30
2022-09-30T08:38:54.003Z,4.30
2022-09-30T08:41:35.745Z,3.55
2022-09-30T08:44:05.098Z,3.30
2022-09-30T08:49:15.800Z,3.40
2022-09-30T08:51:46.248Z,3.30
2022-09-30T08:54:17.943Z,4.03
2022-09-30T08:56:45.410Z,3.40
2022-09-30T08:59:11.710Z,2.40
2022-09-30T09:01:40.094Z,3.45
2022-09-30T09:04:07.750Z,4.27
2022-09-30T09:06:39.478Z,4.28
2022-09-30T09:09:24.539Z,3.70
2022-09-30T09:11:57.877Z,4.18
2022-09-30T09:14:35.872Z,3.25
2022-09-30T09:17:15.372Z,3.05
2022-09-30T09:19:53.106Z,3.03
2022-09-30T09:22:24.494Z,3.03
2022-09-30T09:24:51.710Z,3.03
2022-09-30T09:27:20.176Z,3.60
2022-09-30T09:29:56.032Z,3.42
2022-09-30T09:32:22.625Z,3.38
2022-09-30T09:34:51.683Z,3.65
2022-09-30T09:37:45.896Z,4.00
2022-09-30T09:40:18.247Z,4.03
2022-09-30T09:42:53.221Z,3.63
2022-09-30T09:45:25.740Z,3.63
2022-09-30T09:47:52.841Z,3.90
2022-09-30T09:50:23.421Z,4.05
2022-09-30T09:53:11.055Z,4.60
2022-09-30T09:55:38.413Z,4.30
2022-09-30T09:58:09.725Z,3.80
2022-09-30T10:00:48.222Z,4.30
2022-09-30T10:03:22.105Z,4.00
2022-09-30T10:06:05.724Z,3.60
2022-09-30T10:08:36.665Z,3.63
2022-09-30T10:11:23.301Z,4.20
2022-09-30T10:13:51.083Z,11.10
2022-09-30T10:16:35.548Z,5.35
2022-09-30T10:19:07.231Z,3.85
2022-09-30T10:21:35.738Z,3.70
2022-09-30T10:24:17.995Z,2.97
2022-09-30T10:26:48.448Z,3.35
2022-09-30T10:29:32.268Z,3.25
2022-09-30T10:32:00.140Z,3.00
2022-09-30T10:34:28.293Z,3.13
2022-09-30T10:36:55.584Z,3.53
2022-09-30T10:39:24.674Z,3.30
2022-09-30T10:44:19.973Z,2.83
2022-09-30T10:46:47.407Z,3.40
2022-09-30T10:49:27.874Z,3.20
2022-09-30T10:51:58.582Z,5.00
2022-09-30T10:54:40.252Z,3.70
2022-09-30T10:57:14.190Z,3.40
2022-09-30T10:59:41.208Z,3.63
2022-09-30T11:04:57.593Z,3.30
2022-09-30T11:07:33.203Z,2.97
2022-09-30T11:10:05.146Z,3.50
2022-09-30T11:12:44.959Z,3.63
2022-09-30T11:15:18.970Z,3.70
2022-09-30T11:18:00.104Z,3.13
2022-09-30T11:20:29.342Z,3.88
2022-09-30T11:23:07.774Z,3.55
2022-09-30T11:25:47.253Z,3.70
2022-09-30T11:28:35.377Z,3.30
2022-09-30T11:31:06.190Z,2.80
2022-09-30T11:33:38.809Z,3.05
2022-09-30T11:36:31.324Z,3.40
2022-09-30T11:38:57.655Z,3.65
2022-09-30T11:41:42.177Z,3.42
2022-09-30T11:44:23.692Z,3.58
2022-09-30T11:47:08.909Z,2.67
2022-09-30T11:49:54.138Z,2.30
2022-09-30T11:52:28.357Z,2.80
2022-09-30T11:55:13.121Z,2.90
2022-09-30T11:57:50.228Z,3.13
2022-09-30T12:00:17.633Z,2.65
2022-09-30T12:02:51.747Z,2.40
2022-09-30T12:05:26.870Z,2.35
2022-09-30T12:08:00.867Z,1.98
2022-09-30T12:10:32.840Z,1.58
2022-09-30T12:13:01.846Z,1.80
2022-09-30T12:17:59.134Z,1.50
2022-09-30T12:20:39.428Z,1.50
2022-09-30T12:23:10.820Z,1.42
2022-09-30T12:25:41.969Z,1.60
2022-09-30T12:28:28.383Z,1.60
2022-09-30T12:31:00.098Z,1.88
2022-09-30T12:33:41.299Z,1.63
2022-09-30T12:36:22.788Z,2.03
2022-09-30T12:39:07.981Z,1.83
2022-09-30T12:41:43.222Z,1.73
2022-09-30T12:44:36.194Z,1.48
2022-09-30T12:47:27.877Z,1.48
2022-09-30T12:49:55.646Z,1.50
2022-09-30T12:52:22.234Z,1.48
2022-09-30T12:54:52.074Z,1.23
2022-09-30T12:57:22.358Z,1.20
2022-09-30T12:59:52.642Z,1.10
2022-09-30T13:02:27.175Z,1.05
2022-09-30T13:04:53.511Z,0.90
2022-09-30T13:07:23.172Z,1.60
2022-09-30T13:09:56.970Z,0.95
2022-09-30T13:12:25.057Z,1.30
2022-09-30T13:15:12.339Z,1.17
2022-09-30T13:17:38.769Z,1.50
2022-09-30T13:20:25.368Z,2.10
2022-09-30T13:22:55.696Z,1.80
2022-09-30T13:25:22.081Z,2.10
2022-09-30T13:27:48.953Z,2.50
2022-09-30T13:30:18.009Z,2.85
2022-09-30T13:35:45.107Z,1.85
2022-09-30T13:38:14.187Z,2.10
2022-09-30T13:43:38.125Z,1.77
2022-09-30T13:46:07.111Z,1.90
2022-09-30T13:51:03.767Z,2.13
2022-09-30T13:53:37.248Z,2.28
2022-09-30T13:56:08.423Z,2.25
2022-09-30T13:58:54.990Z,2.67
2022-09-30T14:01:27.489Z,2.97
2022-09-30T14:04:08.903Z,2.90
2022-09-30T14:06:47.645Z,2.95
2022-09-30T14:09:26.212Z,3.25
2022-09-30T14:12:03.644Z,3.10
2022-09-30T14:14:49.371Z,3.20
2022-09-30T14:17:45.061Z,2.88
2022-09-30T14:20:35.808Z,2.70
2022-09-30T14:23:02.480Z,2.70
2022-09-30T14:25:34.032Z,2.83
2022-09-30T14:28:09.987Z,2.50
2022-09-30T14:30:41.410Z,2.70
2022-09-30T14:33:17.031Z,2.80
2022-09-30T14:35:43.389Z,2.50
2022-09-30T14:38:25.312Z,2.65
2022-09-30T14:40:53.005Z,3.15
2022-09-30T14:43:24.143Z,3.10
2022-09-30T14:45:52.961Z,2.80
2022-09-30T14:48:28.138Z,3.08
2022-09-30T14:51:00.352Z,2.72
2022-09-30T14:53:33.978Z,2.72
2022-09-30T14:56:01.089Z,2.80
2022-09-30T14:58:29.190Z,2.50
2022-09-30T15:01:01.829Z,2.30
2022-09-30T15:03:29.027Z,2.13
2022-09-30T15:05:56.925Z,2.10
2022-09-30T15:08:23.345Z,1.75
2022-09-30T15:10:51.923Z,2.08
2022-09-30T15:13:19.649Z,1.63
2022-09-30T15:15:46.069Z,1.75
2022-09-30T15:18:22.891Z,1.77
2022-09-30T15:20:49.491Z,2.20
2022-09-30T15:23:18.793Z,1.58
2022-09-30T15:28:15.362Z,2.25
2022-09-30T15:30:45.629Z,2.15
2022-09-30T15:33:13.765Z,2.15
2022-09-30T15:35:40.420Z,1.95
2022-09-30T15:38:15.666Z,1.80
2022-09-30T15:40:56.160Z,1.60
2022-09-30T15:43:33.349Z,1.30
2022-09-30T15:46:15.901Z,1.40
2022-09-30T15:48:45.095Z,1.40
2022-09-30T15:51:40.448Z,1.52
2022-09-30T15:57:51.979Z,1.05
2022-09-30T16:03:20.599Z,1.40
2022-09-30T16:05:49.615Z,1.17
2022-09-30T16:08:22.770Z,1.30
2022-09-30T16:10:53.202Z,1.23
2022-09-30T16:13:25.133Z,1.45
2022-09-30T16:15:55.279Z,1.48
2022-09-30T16:18:24.823Z,1.60
2022-09-30T16:20:58.192Z,1.60
2022-09-30T16:23:34.608Z,1.80
2022-09-30T16:26:18.006Z,1.60
2022-09-30T16:28:44.534Z,1.60
2022-09-30T16:31:11.265Z,1.90
2022-09-30T16:33:40.369Z,1.90
2022-09-30T16:36:10.282Z,1.77
2022-09-30T16:38:36.657Z,1.63
2022-09-30T16:41:03.719Z,2.65
2022-09-30T16:43:31.377Z,3.50
2022-09-30T16:45:58.224Z,2.95
2022-09-30T16:48:26.133Z,2.65
2022-09-30T16:50:55.502Z,2.83
2022-09-30T16:55:48.771Z,2.08
2022-09-30T16:58:15.235Z,2.88
2022-09-30T17:00:45.554Z,2.63
2022-09-30T17:03:14.261Z,2.70
2022-09-30T17:05:42.007Z,2.38
2022-09-30T17:08:13.886Z,2.40
2022-09-30T17:10:42.043Z,2.25
2022-09-30T17:13:08.585Z,2.17
2022-09-30T17:15:37.388Z,1.95
2022-09-30T17:18:07.594Z,2.50
2022-09-30T17:20:34.368Z,2.30
2022-09-30T17:23:03.732Z,2.13
2022-09-30T17:25:33.397Z,2.92
2022-09-30T17:28:00.103Z,2.45
2022-09-30T17:30:28.935Z,2.00
2022-09-30T17:32:55.305Z,3.85
2022-09-30T17:35:22.597Z,2.50
2022-09-30T17:37:49.023Z,2.50
2022-09-30T17:40:34.218Z,2.50
2022-09-30T17:43:15.524Z,1.80
2022-09-30T17:45:43.904Z,1.73
2022-09-30T17:48:10.826Z,2.67
2022-09-30T17:50:38.048Z,1.67
2022-09-30T17:53:07.927Z,1.95
2022-09-30T17:55:34.786Z,2.17
2022-09-30T17:58:03.236Z,2.00
2022-09-30T18:00:30.310Z,1.60
2022-09-30T18:02:56.847Z,1.70
2022-09-30T18:05:25.627Z,1.90
2022-09-30T18:07:52.059Z,1.58
2022-09-30T18:10:18.619Z,1.50
2022-09-30T18:12:49.643Z,1.60
2022-09-30T18:15:16.822Z,1.50
2022-09-30T18:17:43.187Z,1.80
2022-09-30T18:20:10.162Z,1.80
2022-09-30T18:22:36.515Z,1.70
2022-09-30T18:25:21.261Z,1.65
2022-09-30T18:27:48.872Z,1.92
2022-09-30T18:30:15.328Z,1.48
2022-09-30T18:32:42.152Z,2.20
2022-09-30T18:35:12.295Z,1.65
2022-09-30T18:37:39.160Z,1.60
2022-09-30T18:40:05.759Z,1.88
2022-09-30T18:42:32.346Z,2.00
2022-09-30T18:44:58.843Z,1.60
2022-09-30T18:47:25.423Z,2.10
2022-09-30T18:49:51.788Z,2.88
2022-09-30T18:52:18.169Z,6.10
2022-09-30T18:54:44.481Z,8.75
2022-09-30T18:57:11.142Z,8.18
2022-09-30T18:59:37.488Z,7.00
2022-09-30T19:02:04.070Z,6.18
2022-09-30T19:04:30.541Z,4.80
2022-09-30T19:06:56.862Z,3.40
2022-09-30T19:09:26.461Z,2.95
2022-09-30T19:11:52.931Z,2.47
2022-09-30T19:14:19.355Z,2.30
2022-09-30T19:16:46.294Z,2.30
2022-09-30T19:19:12.858Z,2.05
2022-09-30T19:21:39.490Z,2.10
2022-09-30T19:24:07.071Z,2.35
2022-09-30T19:26:34.800Z,2.38
2022-09-30T19:29:01.144Z,2.45
2022-09-30T19:31:27.960Z,2.22
2022-09-30T19:33:57.046Z,2.20
2022-09-30T19:36:24.704Z,2.50
2022-09-30T19:38:54.223Z,2.40
2022-09-30T19:41:26.306Z,2.30
2022-09-30T19:43:52.584Z,3.10
2022-09-30T19:46:21.545Z,3.15
2022-09-30T19:48:48.155Z,3.50
2022-09-30T19:51:17.866Z,2.97
2022-09-30T19:54:00.213Z,2.40
2022-09-30T19:56:36.999Z,2.55
2022-09-30T19:59:03.870Z,2.80
2022-09-30T20:01:31.082Z,2.22
2022-09-30T20:03:59.076Z,2.38
2022-09-30T20:06:27.632Z,2.20
2022-09-30T20:08:57.617Z,1.90
2022-09-30T20:11:25.427Z,1.70
2022-09-30T20:14:12.747Z,1.63
2022-09-30T20:16:39.756Z,1.73
2022-09-30T20:19:06.187Z,1.95
2022-09-30T20:21:32.816Z,2.13
2022-09-30T20:23:59.882Z,1.92
2022-09-30T20:26:26.292Z,2.20
2022-09-30T20:28:59.020Z,2.10
2022-09-30T20:31:25.624Z,2.50
2022-09-30T20:33:59.749Z,2.55
2022-09-30T20:36:27.710Z,2.83
2022-09-30T20:38:59.141Z,2.70
2022-09-30T20:41:26.387Z,2.70
2022-09-30T20:43:53.062Z,3.40
2022-09-30T20:46:21.236Z,3.90
2022-09-30T20:48:47.984Z,2.83
2022-09-30T20:51:16.371Z,2.08
2022-09-30T20:53:48.698Z,1.70
2022-09-30T20:56:15.381Z,1.73
2022-09-30T20:58:42.121Z,1.50
2022-09-30T21:01:10.333Z,1.20
2022-09-30T21:03:38.069Z,1.13
2022-09-30T21:06:05.363Z,0.90
2022-09-30T21:08:31.705Z,0.80
2022-09-30T21:11:01.904Z,1.00
2022-09-30T21:13:28.285Z,0.80
2022-09-30T21:16:21.085Z,0.82
2022-09-30T21:18:49.159Z,1.10
2022-09-30T21:21:16.709Z,1.02
2022-09-30T21:23:43.080Z,1.10
2022-09-30T21:26:10.523Z,1.15
2022-09-30T21:28:36.988Z,1.60
2022-09-30T21:31:08.144Z,1.60
2022-09-30T21:33:34.968Z,1.45
2022-09-30T21:36:02.322Z,1.90
2022-09-30T21:38:29.131Z,2.17
2022-09-30T21:41:00.433Z,2.30
2022-09-30T21:43:33.522Z,2.45
2022-09-30T21:46:00.891Z,2.80
2022-09-30T21:48:27.668Z,2.70
2022-09-30T21:50:56.392Z,2.95
2022-09-30T21:53:27.167Z,3.50
2022-09-30T21:55:56.943Z,3.33
2022-09-30T21:58:25.205Z,2.92
2022-09-30T22:00:52.466Z,3.38
2022-09-30T22:03:18.878Z,2.92
2022-09-30T22:05:55.026Z,3.30
2022-09-30T22:08:22.144Z,3.10
2022-09-30T22:10:50.250Z,3.50
2022-09-30T22:13:17.153Z,4.03
2022-09-30T22:15:44.749Z,3.30
2022-09-30T22:18:20.573Z,3.13
2022-09-30T22:20:48.152Z,3.60
2022-09-30T22:23:15.155Z,3.92
2022-09-30T22:25:41.554Z,4.30
2022-09-30T22:28:08.001Z,4.45
2022-09-30T22:30:37.843Z,4.53
2022-09-30T22:33:22.990Z,5.03
2022-09-30T22:36:27.922Z,4.80
2022-09-30T22:38:54.547Z,5.40
2022-09-30T22:41:21.490Z,5.60
2022-09-30T22:43:47.971Z,5.50
2022-09-30T22:46:14.335Z,5.40
2022-09-30T22:48:40.703Z,6.75
2022-09-30T22:51:13.892Z,7.05
2022-09-30T22:53:40.370Z,6.43
2022-09-30T22:56:06.743Z,6.93
2022-09-30T22:58:36.781Z,7.03
2022-09-30T23:01:03.481Z,7.80
2022-09-30T23:03:29.831Z,7.55
2022-09-30T23:05:59.787Z,8.35
2022-09-30T23:08:30.520Z,8.05
2022-09-30T23:10:57.490Z,7.47
2022-09-30T23:13:23.855Z,8.60
2022-09-30T23:15:56.819Z,9.20
2022-09-30T23:18:23.110Z,10.13
2022-09-30T23:21:00.022Z,9.68
2022-09-30T23:23:28.681Z,9.85
2022-09-30T23:26:02.361Z,9.77
2022-09-30T23:28:29.243Z,9.13
2022-09-30T23:30:57.241Z,9.30
2022-09-30T23:33:23.843Z,9.45
2022-09-30T23:35:50.211Z,9.48
2022-09-30T23:38:17.960Z,9.38
2022-09-30T23:40:48.181Z,9.60
2022-09-30T23:43:17.561Z,9.48
2022-09-30T23:48:10.165Z,9.18
2022-09-30T23:50:36.509Z,9.57
2022-09-30T23:53:02.836Z,9.38
2022-09-30T23:55:29.690Z,9.73
2022-09-30T23:57:59.093Z,9.90
